ARE6363 SKBO-SEQM
Flight info
| Callsign | ARE6363 |
|---|---|
| Flight time | 1h 12m |
| Altitude | 23000 |
| Route | VAPOM4R OREGA Z009 PPN/N0385F240 W48 MER G675 IPI/N0378F230 G675 QIT |
| Aircraft | A20N/M-SDE2E3FGHIRWXY/LB1 |
Departure
| Time | 2026-05-07 03:08 |
|---|---|
| Airport | El Dorado International Airport (SKBO) |
Arrival
| Time | 2026-05-07 04:21 |
|---|---|
| Airport | Mariscal Sucre International Airport (SEQM) |
| Time | Latitude | Longitude | Altitude | Speed | Heading |
|---|---|---|---|---|---|
| 2026-05-07 02:21 | 4.70017 | -74.14184 | 8373 ft | 0 kts | 217° |
| 2026-05-07 02:40 | 4.70031 | -74.14173 | 8373 ft | 4 kts | 217° |
| 2026-05-07 02:40 | 4.70053 | -74.14157 | 8373 ft | 4 kts | 217° |
| 2026-05-07 02:41 | 4.70075 | -74.14141 | 8373 ft | 3 kts | 217° |
| 2026-05-07 02:41 | 4.70090 | -74.14127 | 8373 ft | 4 kts | 259° |
| 2026-05-07 02:41 | 4.70083 | -74.14107 | 8373 ft | 4 kts | 317° |
| 2026-05-07 02:41 | 4.70065 | -74.14090 | 8373 ft | 2 kts | 307° |
| 2026-05-07 02:42 | 4.70065 | -74.14089 | 8373 ft | 0 kts | 307° |
| 2026-05-07 02:44 | 4.70068 | -74.14094 | 8373 ft | 7 kts | 307° |
| 2026-05-07 02:44 | 4.70093 | -74.14127 | 8373 ft | 0 kts | 309° |
| 2026-05-07 02:51 | 4.70172 | -74.14215 | 8373 ft | 11 kts | 333° |
| 2026-05-07 02:51 | 4.70189 | -74.14218 | 8373 ft | 4 kts | 1° |
| 2026-05-07 02:52 | 4.70244 | -74.14220 | 8373 ft | 16 kts | 340° |
| 2026-05-07 02:52 | 4.70309 | -74.14290 | 8373 ft | 12 kts | 308° |
| 2026-05-07 02:52 | 4.70356 | -74.14350 | 8373 ft | 10 kts | 307° |
| 2026-05-07 02:52 | 4.70419 | -74.14435 | 8373 ft | 20 kts | 308° |
| 2026-05-07 02:53 | 4.70405 | -74.14533 | 8374 ft | 14 kts | 227° |
| 2026-05-07 02:53 | 4.70333 | -74.14585 | 8373 ft | 12 kts | 215° |
| 2026-05-07 02:53 | 4.70270 | -74.14633 | 8373 ft | 14 kts | 217° |
| 2026-05-07 02:53 | 4.70184 | -74.14697 | 8373 ft | 16 kts | 217° |
| 2026-05-07 02:54 | 4.70103 | -74.14759 | 8373 ft | 14 kts | 217° |
| 2026-05-07 02:54 | 4.70030 | -74.14814 | 8373 ft | 12 kts | 217° |
| 2026-05-07 02:54 | 4.69967 | -74.14861 | 8373 ft | 11 kts | 217° |
| 2026-05-07 02:54 | 4.69913 | -74.14902 | 8371 ft | 9 kts | 217° |
| 2026-05-07 02:55 | 4.69871 | -74.14937 | 8370 ft | 7 kts | 230° |
| 2026-05-07 02:55 | 4.69871 | -74.14995 | 8371 ft | 11 kts | 302° |
| 2026-05-07 02:55 | 4.69933 | -74.15077 | 8373 ft | 18 kts | 307° |
| 2026-05-07 02:55 | 4.70020 | -74.15190 | 8372 ft | 22 kts | 307° |
| 2026-05-07 02:56 | 4.70100 | -74.15298 | 8371 ft | 18 kts | 307° |
| 2026-05-07 02:56 | 4.70162 | -74.15379 | 8374 ft | 11 kts | 307° |
| 2026-05-07 02:56 | 4.70205 | -74.15437 | 8373 ft | 12 kts | 307° |
| 2026-05-07 02:56 | 4.70253 | -74.15499 | 8373 ft | 10 kts | 307° |
| 2026-05-07 02:57 | 4.70293 | -74.15553 | 8373 ft | 10 kts | 307° |
| 2026-05-07 02:57 | 4.70333 | -74.15606 | 8373 ft | 9 kts | 306° |
| 2026-05-07 02:57 | 4.70407 | -74.15705 | 8373 ft | 21 kts | 308° |
| 2026-05-07 02:57 | 4.70491 | -74.15815 | 8371 ft | 19 kts | 308° |
| 2026-05-07 02:58 | 4.70565 | -74.15913 | 8373 ft | 17 kts | 307° |
| 2026-05-07 02:58 | 4.70632 | -74.16002 | 8371 ft | 15 kts | 306° |
| 2026-05-07 02:58 | 4.70696 | -74.16085 | 8372 ft | 21 kts | 307° |
| 2026-05-07 02:58 | 4.70789 | -74.16208 | 8373 ft | 21 kts | 307° |
| 2026-05-07 02:59 | 4.70875 | -74.16321 | 8374 ft | 19 kts | 307° |
| 2026-05-07 02:59 | 4.70953 | -74.16424 | 8372 ft | 18 kts | 307° |
| 2026-05-07 02:59 | 4.71018 | -74.16510 | 8372 ft | 14 kts | 307° |
| 2026-05-07 02:59 | 4.71070 | -74.16579 | 8373 ft | 10 kts | 307° |
| 2026-05-07 03:00 | 4.71110 | -74.16631 | 8370 ft | 8 kts | 306° |
| 2026-05-07 03:00 | 4.71125 | -74.16652 | 8372 ft | 0 kts | 307° |
| 2026-05-07 03:00 | 4.71131 | -74.16660 | 8371 ft | 1 kts | 307° |
| 2026-05-07 03:01 | 4.71133 | -74.16662 | 8370 ft | 1 kts | 307° |
| 2026-05-07 03:01 | 4.71141 | -74.16674 | 8373 ft | 0 kts | 307° |
| 2026-05-07 03:01 | 4.71142 | -74.16674 | 8373 ft | 1 kts | 307° |
| 2026-05-07 03:01 | 4.71156 | -74.16692 | 8372 ft | 5 kts | 307° |
| 2026-05-07 03:02 | 4.71185 | -74.16731 | 8371 ft | 8 kts | 307° |
| 2026-05-07 03:02 | 4.71216 | -74.16773 | 8373 ft | 11 kts | 307° |
| 2026-05-07 03:02 | 4.71248 | -74.16833 | 8373 ft | 8 kts | 273° |
| 2026-05-07 03:02 | 4.71231 | -74.16869 | 8372 ft | 4 kts | 225° |
| 2026-05-07 03:03 | 4.71224 | -74.16874 | 8373 ft | 0 kts | 217° |
| 2026-05-07 03:04 | 4.71222 | -74.16875 | 8371 ft | 4 kts | 217° |
| 2026-05-07 03:05 | 4.71164 | -74.16901 | 8371 ft | 6 kts | 162° |
| 2026-05-07 03:05 | 4.71070 | -74.16890 | 8372 ft | 14 kts | 177° |
| 2026-05-07 03:05 | 4.71015 | -74.16861 | 8373 ft | 0 kts | 125° |
| 2026-05-07 03:05 | 4.71014 | -74.16860 | 8373 ft | 0 kts | 125° |
| 2026-05-07 03:07 | 4.71013 | -74.16859 | 8373 ft | 1 kts | 125° |
| 2026-05-07 03:07 | 4.71012 | -74.16857 | 8374 ft | 1 kts | 125° |
| 2026-05-07 03:08 | 4.70904 | -74.16715 | 8371 ft | 58 kts | 128° |
| 2026-05-07 03:08 | 4.70522 | -74.16209 | 8374 ft | 123 kts | 126° |
| 2026-05-07 03:08 | 4.69893 | -74.15365 | 8387 ft | 177 kts | 125° |
| 2026-05-07 03:08 | 4.69105 | -74.14399 | 8980 ft | 175 kts | 129° |
| 2026-05-07 03:09 | 4.68309 | -74.13488 | 9705 ft | 177 kts | 133° |
| 2026-05-07 03:09 | 4.67164 | -74.12887 | 9953 ft | 203 kts | 175° |
| 2026-05-07 03:09 | 4.65756 | -74.13315 | 10203 ft | 230 kts | 217° |
| 2026-05-07 03:09 | 4.64813 | -74.14667 | 10694 ft | 243 kts | 244° |
| 2026-05-07 03:10 | 4.64085 | -74.16233 | 11306 ft | 250 kts | 242° |
| 2026-05-07 03:10 | 4.63277 | -74.17793 | 11753 ft | 262 kts | 239° |
| 2026-05-07 03:10 | 4.62328 | -74.19398 | 12289 ft | 271 kts | 236° |
| 2026-05-07 03:10 | 4.61504 | -74.21120 | 12965 ft | 278 kts | 251° |
| 2026-05-07 03:11 | 4.61031 | -74.23070 | 13329 ft | 299 kts | 257° |
| 2026-05-07 03:11 | 4.60634 | -74.25205 | 13581 ft | 322 kts | 258° |
| 2026-05-07 03:11 | 4.60091 | -74.27432 | 13851 ft | 341 kts | 248° |
| 2026-05-07 03:11 | 4.59110 | -74.29664 | 14099 ft | 358 kts | 241° |
| 2026-05-07 03:12 | 4.57949 | -74.31958 | 14350 ft | 374 kts | 240° |
| 2026-05-07 03:12 | 4.56737 | -74.34310 | 14824 ft | 381 kts | 240° |
| 2026-05-07 03:12 | 4.55523 | -74.36668 | 15345 ft | 385 kts | 241° |
| 2026-05-07 03:12 | 4.54290 | -74.39068 | 15867 ft | 388 kts | 241° |
| 2026-05-07 03:13 | 4.53064 | -74.41460 | 16399 ft | 391 kts | 241° |
| 2026-05-07 03:13 | 4.51806 | -74.43916 | 16948 ft | 395 kts | 242° |
| 2026-05-07 03:13 | 4.50552 | -74.46363 | 17489 ft | 398 kts | 242° |
| 2026-05-07 03:13 | 4.49274 | -74.48860 | 18035 ft | 402 kts | 242° |
| 2026-05-07 03:14 | 4.48007 | -74.51334 | 18480 ft | 405 kts | 242° |
| 2026-05-07 03:14 | 4.46716 | -74.53857 | 18918 ft | 408 kts | 242° |
| 2026-05-07 03:14 | 4.44119 | -74.58926 | 19827 ft | 411 kts | 242° |
| 2026-05-07 03:15 | 4.42802 | -74.61499 | 20286 ft | 413 kts | 242° |
| 2026-05-07 03:15 | 4.41485 | -74.64071 | 20736 ft | 416 kts | 242° |
| 2026-05-07 03:15 | 4.40170 | -74.66638 | 21126 ft | 418 kts | 242° |
| 2026-05-07 03:15 | 4.38827 | -74.69254 | 21574 ft | 421 kts | 242° |
| 2026-05-07 03:16 | 4.37487 | -74.71855 | 22022 ft | 424 kts | 242° |
| 2026-05-07 03:16 | 4.36122 | -74.74505 | 22476 ft | 426 kts | 242° |
| 2026-05-07 03:16 | 4.34767 | -74.77133 | 22675 ft | 427 kts | 242° |
| 2026-05-07 03:16 | 4.33397 | -74.79792 | 22709 ft | 428 kts | 242° |
| 2026-05-07 03:17 | 4.32041 | -74.82422 | 22703 ft | 429 kts | 242° |
| 2026-05-07 03:17 | 4.30666 | -74.85091 | 22707 ft | 429 kts | 242° |
| 2026-05-07 03:17 | 4.29304 | -74.87735 | 22703 ft | 429 kts | 242° |
| 2026-05-07 03:17 | 4.27924 | -74.90413 | 22706 ft | 429 kts | 242° |
| 2026-05-07 03:18 | 4.26567 | -74.93046 | 22689 ft | 429 kts | 242° |
| 2026-05-07 03:18 | 4.25191 | -74.95718 | 22688 ft | 429 kts | 242° |
| 2026-05-07 03:18 | 4.23832 | -74.98355 | 22690 ft | 429 kts | 242° |
| 2026-05-07 03:18 | 4.22457 | -75.01023 | 22668 ft | 429 kts | 242° |
| 2026-05-07 03:19 | 4.21068 | -75.03673 | 22688 ft | 429 kts | 240° |
| 2026-05-07 03:19 | 4.19496 | -75.06186 | 22689 ft | 429 kts | 236° |
| 2026-05-07 03:19 | 4.17782 | -75.08615 | 22694 ft | 428 kts | 233° |
| 2026-05-07 03:19 | 4.15987 | -75.11005 | 22696 ft | 428 kts | 232° |
| 2026-05-07 03:20 | 4.14156 | -75.13387 | 22697 ft | 428 kts | 232° |
| 2026-05-07 03:20 | 4.12350 | -75.15733 | 22672 ft | 428 kts | 232° |
| 2026-05-07 03:20 | 4.10531 | -75.18113 | 22670 ft | 428 kts | 232° |
| 2026-05-07 03:20 | 4.08742 | -75.20471 | 22671 ft | 428 kts | 232° |
| 2026-05-07 03:21 | 4.06936 | -75.22865 | 22697 ft | 428 kts | 232° |
| 2026-05-07 03:21 | 4.05159 | -75.25232 | 22702 ft | 428 kts | 232° |
| 2026-05-07 03:21 | 4.03383 | -75.27603 | 22699 ft | 429 kts | 232° |
| 2026-05-07 03:21 | 4.01577 | -75.30017 | 22700 ft | 429 kts | 232° |
| 2026-05-07 03:22 | 3.99786 | -75.32410 | 22695 ft | 429 kts | 232° |
| 2026-05-07 03:22 | 3.98017 | -75.34774 | 22669 ft | 429 kts | 232° |
| 2026-05-07 03:22 | 3.96216 | -75.37181 | 22704 ft | 429 kts | 232° |
| 2026-05-07 03:22 | 3.94447 | -75.39542 | 22698 ft | 429 kts | 232° |
| 2026-05-07 03:23 | 3.92649 | -75.41943 | 22704 ft | 429 kts | 232° |
| 2026-05-07 03:23 | 3.90871 | -75.44317 | 22702 ft | 428 kts | 233° |
| 2026-05-07 03:23 | 3.89086 | -75.46700 | 22703 ft | 428 kts | 233° |
| 2026-05-07 03:23 | 3.87188 | -75.49030 | 22701 ft | 427 kts | 225° |
| 2026-05-07 03:24 | 3.85031 | -75.51031 | 22758 ft | 427 kts | 220° |
| 2026-05-07 03:24 | 3.82763 | -75.52960 | 22725 ft | 426 kts | 218° |
| 2026-05-07 03:24 | 3.80454 | -75.54820 | 22726 ft | 426 kts | 217° |
| 2026-05-07 03:24 | 3.78115 | -75.56654 | 22722 ft | 426 kts | 217° |
| 2026-05-07 03:25 | 3.75798 | -75.58457 | 22731 ft | 426 kts | 217° |
| 2026-05-07 03:25 | 3.73441 | -75.60289 | 22727 ft | 426 kts | 217° |
| 2026-05-07 03:25 | 3.71113 | -75.62104 | 22727 ft | 426 kts | 217° |
| 2026-05-07 03:25 | 3.68771 | -75.63937 | 22703 ft | 426 kts | 217° |
| 2026-05-07 03:26 | 3.66436 | -75.65770 | 22746 ft | 426 kts | 216° |
| 2026-05-07 03:26 | 3.64135 | -75.67581 | 22842 ft | 427 kts | 216° |
| 2026-05-07 03:26 | 3.61780 | -75.69437 | 23316 ft | 429 kts | 216° |
| 2026-05-07 03:26 | 3.59420 | -75.71296 | 23818 ft | 431 kts | 216° |
| 2026-05-07 03:27 | 3.57083 | -75.73137 | 24213 ft | 433 kts | 216° |
| 2026-05-07 03:27 | 3.54693 | -75.75020 | 24628 ft | 435 kts | 216° |
| 2026-05-07 03:27 | 3.52328 | -75.76884 | 25051 ft | 437 kts | 217° |
| 2026-05-07 03:27 | 3.49920 | -75.78782 | 25509 ft | 438 kts | 217° |
| 2026-05-07 03:28 | 3.47535 | -75.80661 | 25945 ft | 440 kts | 217° |
| 2026-05-07 03:28 | 3.45145 | -75.82544 | 26359 ft | 441 kts | 217° |
| 2026-05-07 03:28 | 3.42715 | -75.84458 | 26774 ft | 443 kts | 217° |
| 2026-05-07 03:28 | 3.40269 | -75.86385 | 27126 ft | 446 kts | 217° |
| 2026-05-07 03:29 | 3.37854 | -75.88286 | 27510 ft | 448 kts | 217° |
| 2026-05-07 03:29 | 3.35386 | -75.90229 | 27888 ft | 450 kts | 217° |
| 2026-05-07 03:29 | 3.32938 | -75.92157 | 28248 ft | 452 kts | 216° |
| 2026-05-07 03:29 | 3.30456 | -75.94112 | 28607 ft | 454 kts | 216° |
| 2026-05-07 03:30 | 3.27975 | -75.96065 | 28962 ft | 456 kts | 217° |
| 2026-05-07 03:30 | 3.25468 | -75.98040 | 29305 ft | 458 kts | 216° |
| 2026-05-07 03:30 | 3.22979 | -76.00000 | 29638 ft | 460 kts | 216° |
| 2026-05-07 03:30 | 3.20448 | -76.01992 | 29742 ft | 461 kts | 216° |
| 2026-05-07 03:31 | 3.17941 | -76.03965 | 29758 ft | 462 kts | 216° |
| 2026-05-07 03:31 | 3.12876 | -76.07952 | 29725 ft | 462 kts | 216° |
| 2026-05-07 03:32 | 3.07839 | -76.11915 | 29735 ft | 462 kts | 216° |
| 2026-05-07 03:32 | 3.02792 | -76.15886 | 29732 ft | 463 kts | 217° |
| 2026-05-07 03:33 | 2.97701 | -76.19885 | 29735 ft | 466 kts | 217° |
| 2026-05-07 03:33 | 2.92541 | -76.23888 | 29695 ft | 467 kts | 215° |
| 2026-05-07 03:34 | 2.87387 | -76.27867 | 29694 ft | 468 kts | 215° |
| 2026-05-07 03:34 | 2.82268 | -76.31820 | 29691 ft | 468 kts | 214° |
| 2026-05-07 03:35 | 2.77111 | -76.35810 | 29704 ft | 468 kts | 216° |
| 2026-05-07 03:35 | 2.71953 | -76.39799 | 29684 ft | 468 kts | 214° |
| 2026-05-07 03:36 | 2.66806 | -76.43778 | 29723 ft | 468 kts | 216° |
| 2026-05-07 03:36 | 2.61687 | -76.47802 | 29760 ft | 469 kts | 217° |
| 2026-05-07 03:37 | 2.56611 | -76.51912 | 29778 ft | 469 kts | 217° |
| 2026-05-07 03:37 | 2.51558 | -76.56018 | 29810 ft | 468 kts | 217° |
| 2026-05-07 03:38 | 2.46508 | -76.60109 | 29801 ft | 468 kts | 217° |
| 2026-05-07 03:38 | 2.41440 | -76.64220 | 29800 ft | 468 kts | 217° |
| 2026-05-07 03:39 | 2.36389 | -76.68335 | 29796 ft | 468 kts | 217° |
| 2026-05-07 03:39 | 2.32196 | -76.71753 | 29768 ft | 468 kts | 218° |
| 2026-05-07 03:40 | 2.27151 | -76.75861 | 29727 ft | 468 kts | 218° |
| 2026-05-07 03:40 | 2.22088 | -76.79984 | 29681 ft | 468 kts | 217° |
| 2026-05-07 03:41 | 2.17031 | -76.84101 | 29654 ft | 470 kts | 216° |
| 2026-05-07 03:41 | 2.11969 | -76.88221 | 29655 ft | 469 kts | 218° |
| 2026-05-07 03:42 | 2.06942 | -76.92314 | 29674 ft | 469 kts | 218° |
| 2026-05-07 03:42 | 2.01850 | -76.96457 | 29651 ft | 469 kts | 218° |
| 2026-05-07 03:43 | 1.96807 | -77.00560 | 29650 ft | 469 kts | 218° |
| 2026-05-07 03:43 | 1.91748 | -77.04676 | 29679 ft | 469 kts | 218° |
| 2026-05-07 03:44 | 1.86695 | -77.08788 | 29657 ft | 468 kts | 218° |
| 2026-05-07 03:44 | 1.81646 | -77.12893 | 29654 ft | 468 kts | 216° |
| 2026-05-07 03:45 | 1.76032 | -77.16070 | 29678 ft | 464 kts | 200° |
| 2026-05-07 03:45 | 1.70018 | -77.18367 | 29603 ft | 461 kts | 198° |
| 2026-05-07 03:45 | 1.67002 | -77.19430 | 29203 ft | 454 kts | 197° |
| 2026-05-07 03:46 | 1.64041 | -77.20457 | 28988 ft | 443 kts | 197° |
| 2026-05-07 03:46 | 1.61185 | -77.21447 | 28739 ft | 434 kts | 197° |
| 2026-05-07 03:46 | 1.58343 | -77.22436 | 28715 ft | 428 kts | 197° |
| 2026-05-07 03:47 | 1.52709 | -77.24411 | 28709 ft | 431 kts | 197° |
| 2026-05-07 03:47 | 1.47059 | -77.26405 | 28747 ft | 431 kts | 197° |
| 2026-05-07 03:48 | 1.41443 | -77.28464 | 28750 ft | 432 kts | 202° |
| 2026-05-07 03:48 | 1.36267 | -77.31506 | 28831 ft | 434 kts | 212° |
| 2026-05-07 03:49 | 1.31320 | -77.34971 | 28832 ft | 435 kts | 214° |
| 2026-05-07 03:49 | 1.26397 | -77.38536 | 28821 ft | 435 kts | 214° |
| 2026-05-07 03:50 | 1.21498 | -77.42073 | 28815 ft | 435 kts | 214° |
| 2026-05-07 03:50 | 1.16576 | -77.45602 | 28841 ft | 435 kts | 214° |
| 2026-05-07 03:51 | 1.11668 | -77.49112 | 28887 ft | 435 kts | 213° |
| 2026-05-07 03:51 | 1.06748 | -77.52630 | 28556 ft | 431 kts | 213° |
| 2026-05-07 03:51 | 1.04334 | -77.54356 | 28112 ft | 429 kts | 213° |
| 2026-05-07 03:52 | 1.01907 | -77.56091 | 27665 ft | 427 kts | 213° |
| 2026-05-07 03:52 | 0.99483 | -77.57825 | 27227 ft | 424 kts | 214° |
| 2026-05-07 03:52 | 0.97121 | -77.59515 | 26836 ft | 421 kts | 214° |
| 2026-05-07 03:52 | 0.94743 | -77.61218 | 26690 ft | 420 kts | 213° |
| 2026-05-07 03:53 | 0.92347 | -77.62930 | 26672 ft | 423 kts | 213° |
| 2026-05-07 03:53 | 0.89943 | -77.64647 | 26672 ft | 423 kts | 214° |
| 2026-05-07 03:53 | 0.87584 | -77.66342 | 26672 ft | 424 kts | 215° |
| 2026-05-07 03:53 | 0.85306 | -77.68238 | 26672 ft | 425 kts | 219° |
| 2026-05-07 03:54 | 0.83089 | -77.70212 | 26505 ft | 425 kts | 220° |
| 2026-05-07 03:54 | 0.80925 | -77.72192 | 26505 ft | 426 kts | 221° |
| 2026-05-07 03:54 | 0.78758 | -77.74207 | 26505 ft | 426 kts | 221° |
| 2026-05-07 03:54 | 0.76593 | -77.76233 | 26189 ft | 423 kts | 221° |
| 2026-05-07 03:55 | 0.74469 | -77.78223 | 25684 ft | 423 kts | 221° |
| 2026-05-07 03:55 | 0.72325 | -77.80229 | 25275 ft | 419 kts | 221° |
| 2026-05-07 03:55 | 0.70200 | -77.82213 | 24827 ft | 417 kts | 221° |
| 2026-05-07 03:55 | 0.68067 | -77.84202 | 24346 ft | 416 kts | 221° |
| 2026-05-07 03:56 | 0.65954 | -77.86170 | 23973 ft | 413 kts | 221° |
| 2026-05-07 03:56 | 0.63890 | -77.88091 | 23503 ft | 410 kts | 220° |
| 2026-05-07 03:56 | 0.61784 | -77.90050 | 22965 ft | 409 kts | 221° |
| 2026-05-07 03:56 | 0.59732 | -77.91961 | 22562 ft | 405 kts | 221° |
| 2026-05-07 03:57 | 0.57669 | -77.93882 | 22130 ft | 401 kts | 221° |
| 2026-05-07 03:57 | 0.55648 | -77.95765 | 21573 ft | 400 kts | 221° |
| 2026-05-07 03:57 | 0.53617 | -77.97657 | 21189 ft | 395 kts | 220° |
| 2026-05-07 03:57 | 0.51614 | -77.99522 | 20763 ft | 391 kts | 221° |
| 2026-05-07 03:58 | 0.49647 | -78.01353 | 20279 ft | 390 kts | 220° |
| 2026-05-07 03:58 | 0.47659 | -78.03205 | 19859 ft | 386 kts | 221° |
| 2026-05-07 03:58 | 0.45722 | -78.05008 | 19513 ft | 381 kts | 221° |
| 2026-05-07 03:58 | 0.43782 | -78.06815 | 19058 ft | 380 kts | 220° |
| 2026-05-07 03:59 | 0.41836 | -78.08624 | 18628 ft | 378 kts | 220° |
| 2026-05-07 03:59 | 0.39930 | -78.10397 | 18212 ft | 374 kts | 221° |
| 2026-05-07 03:59 | 0.38038 | -78.12159 | 17944 ft | 371 kts | 220° |
| 2026-05-07 03:59 | 0.36158 | -78.13907 | 17899 ft | 372 kts | 221° |
| 2026-05-07 04:00 | 0.34251 | -78.15681 | 17899 ft | 371 kts | 221° |
| 2026-05-07 04:00 | 0.32373 | -78.17427 | 17895 ft | 370 kts | 221° |
| 2026-05-07 04:00 | 0.30498 | -78.19172 | 17897 ft | 370 kts | 221° |
| 2026-05-07 04:00 | 0.28599 | -78.20938 | 17923 ft | 370 kts | 221° |
| 2026-05-07 04:01 | 0.26730 | -78.22677 | 17923 ft | 371 kts | 221° |
| 2026-05-07 04:01 | 0.24833 | -78.24441 | 17922 ft | 371 kts | 221° |
| 2026-05-07 04:01 | 0.22962 | -78.26183 | 17888 ft | 370 kts | 221° |
| 2026-05-07 04:01 | 0.21061 | -78.27951 | 17893 ft | 370 kts | 221° |
| 2026-05-07 04:02 | 0.19189 | -78.29693 | 17895 ft | 370 kts | 221° |
| 2026-05-07 04:02 | 0.17292 | -78.31459 | 17891 ft | 370 kts | 221° |
| 2026-05-07 04:02 | 0.15420 | -78.33200 | 17894 ft | 370 kts | 221° |
| 2026-05-07 04:02 | 0.13546 | -78.34942 | 17910 ft | 370 kts | 221° |
| 2026-05-07 04:03 | 0.11651 | -78.36705 | 17917 ft | 369 kts | 221° |
| 2026-05-07 04:03 | 0.09789 | -78.38438 | 17916 ft | 369 kts | 221° |
| 2026-05-07 04:03 | 0.07895 | -78.40201 | 17867 ft | 369 kts | 221° |
| 2026-05-07 04:03 | 0.06025 | -78.41940 | 17863 ft | 369 kts | 221° |
| 2026-05-07 04:04 | 0.04138 | -78.43696 | 17864 ft | 370 kts | 221° |
| 2026-05-07 04:04 | 0.02265 | -78.45439 | 17872 ft | 370 kts | 221° |
| 2026-05-07 04:04 | 0.00361 | -78.47162 | 17870 ft | 369 kts | 216° |
| 2026-05-07 04:04 | -0.01827 | -78.48497 | 17896 ft | 365 kts | 200° |
| 2026-05-07 04:05 | -0.04247 | -78.49136 | 17897 ft | 360 kts | 182° |
| 2026-05-07 04:05 | -0.06704 | -78.48934 | 17905 ft | 354 kts | 161° |
| 2026-05-07 04:05 | -0.08935 | -78.47965 | 17899 ft | 350 kts | 149° |
| 2026-05-07 04:05 | -0.11028 | -78.46711 | 17903 ft | 351 kts | 146° |
| 2026-05-07 04:06 | -0.13099 | -78.45405 | 17904 ft | 351 kts | 145° |
| 2026-05-07 04:06 | -0.15152 | -78.44105 | 17904 ft | 351 kts | 145° |
| 2026-05-07 04:06 | -0.17222 | -78.42800 | 17896 ft | 350 kts | 145° |
| 2026-05-07 04:06 | -0.19233 | -78.41460 | 17893 ft | 348 kts | 139° |
| 2026-05-07 04:07 | -0.21115 | -78.39927 | 17993 ft | 349 kts | 139° |
| 2026-05-07 04:07 | -0.23045 | -78.38415 | 17987 ft | 351 kts | 146° |
| 2026-05-07 04:07 | -0.25184 | -78.37265 | 17990 ft | 353 kts | 151° |
| 2026-05-07 04:07 | -0.27353 | -78.36130 | 17983 ft | 353 kts | 149° |
| 2026-05-07 04:08 | -0.29492 | -78.34939 | 17981 ft | 352 kts | 147° |
| 2026-05-07 04:08 | -0.31369 | -78.33401 | 17988 ft | 347 kts | 126° |
| 2026-05-07 04:08 | -0.32407 | -78.31280 | 17996 ft | 342 kts | 102° |
| 2026-05-07 04:08 | -0.32444 | -78.28912 | 17988 ft | 341 kts | 77° |
| 2026-05-07 04:09 | -0.31478 | -78.26781 | 17980 ft | 344 kts | 53° |
| 2026-05-07 04:09 | -0.29652 | -78.25221 | 17985 ft | 346 kts | 29° |
| 2026-05-07 04:09 | -0.27376 | -78.24597 | 17985 ft | 334 kts | 3° |
| 2026-05-07 04:09 | -0.25188 | -78.25032 | 17976 ft | 322 kts | 335° |
| 2026-05-07 04:10 | -0.23508 | -78.26413 | 17988 ft | 311 kts | 306° |
| 2026-05-07 04:10 | -0.22796 | -78.28376 | 17999 ft | 297 kts | 270° |
| 2026-05-07 04:10 | -0.23339 | -78.30291 | 17981 ft | 285 kts | 231° |
| 2026-05-07 04:10 | -0.24808 | -78.31605 | 17850 ft | 284 kts | 209° |
| 2026-05-07 04:11 | -0.26441 | -78.32721 | 17673 ft | 288 kts | 218° |
| 2026-05-07 04:11 | -0.27847 | -78.34155 | 17444 ft | 291 kts | 226° |
| 2026-05-07 04:11 | -0.29196 | -78.35653 | 17098 ft | 291 kts | 228° |
| 2026-05-07 04:11 | -0.30519 | -78.37203 | 16727 ft | 290 kts | 223° |
| 2026-05-07 04:12 | -0.32116 | -78.38379 | 16324 ft | 285 kts | 201° |
| 2026-05-07 04:12 | -0.33999 | -78.38835 | 15910 ft | 279 kts | 176° |
| 2026-05-07 04:12 | -0.35884 | -78.38458 | 15448 ft | 274 kts | 149° |
| 2026-05-07 04:12 | -0.37234 | -78.37199 | 15033 ft | 265 kts | 120° |
| 2026-05-07 04:13 | -0.37914 | -78.35530 | 14454 ft | 259 kts | 116° |
| 2026-05-07 04:13 | -0.39009 | -78.34163 | 14035 ft | 243 kts | 140° |
| 2026-05-07 04:13 | -0.40290 | -78.33247 | 14004 ft | 211 kts | 146° |
| 2026-05-07 04:13 | -0.41534 | -78.33129 | 14375 ft | 171 kts | 205° |
| 2026-05-07 04:14 | -0.42252 | -78.34133 | 14148 ft | 194 kts | 257° |
| 2026-05-07 04:14 | -0.41929 | -78.35458 | 13462 ft | 204 kts | 311° |
| 2026-05-07 04:14 | -0.40746 | -78.36173 | 12874 ft | 206 kts | 349° |
| 2026-05-07 04:14 | -0.39323 | -78.36264 | 12452 ft | 196 kts | 6° |
| 2026-05-07 04:15 | -0.38117 | -78.36111 | 12772 ft | 168 kts | 5° |
| 2026-05-07 04:15 | -0.36920 | -78.36019 | 12907 ft | 172 kts | 9° |
| 2026-05-07 04:15 | -0.35692 | -78.35815 | 12781 ft | 184 kts | 12° |
| 2026-05-07 04:15 | -0.34465 | -78.35559 | 12374 ft | 180 kts | 11° |
| 2026-05-07 04:16 | -0.33216 | -78.35343 | 11803 ft | 183 kts | 9° |
| 2026-05-07 04:16 | -0.31916 | -78.35266 | 11194 ft | 191 kts | 1° |
| 2026-05-07 04:16 | -0.30604 | -78.35294 | 10800 ft | 187 kts | 1° |
| 2026-05-07 04:16 | -0.29293 | -78.35363 | 10354 ft | 189 kts | 355° |
| 2026-05-07 04:17 | -0.27987 | -78.35490 | 9874 ft | 187 kts | 1° |
| 2026-05-07 04:17 | -0.26740 | -78.35561 | 9618 ft | 170 kts | 358° |
| 2026-05-07 04:17 | -0.25592 | -78.35610 | 9492 ft | 162 kts | 5° |
| 2026-05-07 04:17 | -0.24526 | -78.35579 | 9323 ft | 147 kts | 1° |
| 2026-05-07 04:18 | -0.23513 | -78.35537 | 9248 ft | 153 kts | 358° |
| 2026-05-07 04:18 | -0.22374 | -78.35576 | 9216 ft | 164 kts | 2° |
| 2026-05-07 04:18 | -0.21202 | -78.35561 | 9089 ft | 179 kts | 357° |
| 2026-05-07 04:18 | -0.20055 | -78.35584 | 9059 ft | 153 kts | 358° |
| 2026-05-07 04:19 | -0.18969 | -78.35643 | 8927 ft | 177 kts | 358° |
| 2026-05-07 04:19 | -0.17716 | -78.35718 | 8566 ft | 176 kts | 358° |
| 2026-05-07 04:19 | -0.16592 | -78.35600 | 8474 ft | 157 kts | 24° |
| 2026-05-07 04:19 | -0.15497 | -78.35304 | 8411 ft | 163 kts | 360° |
| 2026-05-07 04:20 | -0.14382 | -78.35367 | 8019 ft | 160 kts | 0° |
| 2026-05-07 04:20 | -0.13317 | -78.35402 | 7889 ft | 130 kts | 357° |
| 2026-05-07 04:20 | -0.12719 | -78.35432 | 7867 ft | 50 kts | 358° |
| 2026-05-07 04:21 | -0.12494 | -78.35507 | 7853 ft | 11 kts | 328° |
| 2026-05-07 04:21 | -0.12480 | -78.35515 | 7852 ft | 1 kts | 328° |
| 2026-05-07 04:21 | -0.12480 | -78.35516 | 7852 ft | 0 kts | 328° |
| 2026-05-07 04:21 | -0.12479 | -78.35516 | 7852 ft | 1 kts | 328° |
| 2026-05-07 04:22 | -0.12467 | -78.35523 | 7851 ft | 3 kts | 329° |
| 2026-05-07 04:22 | -0.12440 | -78.35541 | 7850 ft | 8 kts | 327° |
| 2026-05-07 04:22 | -0.12380 | -78.35579 | 7839 ft | 12 kts | 324° |
| 2026-05-07 04:22 | -0.12357 | -78.35654 | 7845 ft | 12 kts | 269° |
| 2026-05-07 04:23 | -0.12360 | -78.35731 | 7837 ft | 8 kts | 267° |
| 2026-05-07 04:23 | -0.12362 | -78.35778 | 7843 ft | 2 kts | 268° |
| 2026-05-07 04:23 | -0.12363 | -78.35790 | 7839 ft | 9 kts | 269° |
| 2026-05-07 04:23 | -0.12347 | -78.35838 | 7842 ft | 14 kts | 320° |
| 2026-05-07 04:24 | -0.12326 | -78.35853 | 7839 ft | 1 kts | 310° |
| 2026-05-07 04:24 | -0.12334 | -78.35860 | 7839 ft | 1 kts | 201° |
| 2026-05-07 04:24 | -0.12383 | -78.35845 | 7843 ft | 12 kts | 160° |
| 2026-05-07 04:24 | -0.12424 | -78.35849 | 7845 ft | 1 kts | 244° |
| 2026-05-07 04:25 | -0.12425 | -78.35866 | 7839 ft | 0 kts | 276° |
| 2026-05-07 04:25 | -0.12429 | -78.35896 | 7839 ft | 7 kts | 266° |
| 2026-05-07 04:25 | -0.12430 | -78.35925 | 7844 ft | 0 kts | 268° |